Time;durP1;ratioP1;P1;durP2;ratioP2;P2;SDS_P1;SDS_P2;PMS_P1;PMS_P2;Temp;Humidity;BMP_temperature;BMP_pressure;BME280_temperature;BME280_humidity;BME280_pressure;Samples;Min_cycle;Max_cycle;Signal;HPM_P1;HPM_P2
2023/05/21 00:00:47;;;;;;;;;25.00;22.00;;;;;15.84;100.00;99782.53;6280899;20;3587836;-60
2023/05/21 00:03:15;;;;;;;;;32.33;28.33;;;;;15.57;100.00;99775.63;6279341;20;3602431;-60
2023/05/21 00:05:45;;;;;;;;;28.00;25.67;;;;;15.55;100.00;99775.75;6276233;20;3604450;-60
2023/05/21 00:08:14;;;;;;;;;40.33;33.00;;;;;15.78;100.00;99775.78;6285467;20;3592038;-60
2023/05/21 00:10:42;;;;;;;;;33.33;29.00;;;;;15.52;100.00;99776.00;6287453;20;3602389;-60
2023/05/21 00:13:11;;;;;;;;;33.00;28.67;;;;;15.32;100.00;99779.44;6282997;20;3600281;-60
2023/05/21 00:15:39;;;;;;;;;29.67;28.00;;;;;15.36;100.00;99775.53;6286405;20;3594002;-60
2023/05/21 00:18:07;;;;;;;;;30.67;28.67;;;;;15.42;100.00;99785.84;6283063;20;3589894;-59
2023/05/21 00:20:35;;;;;;;;;35.33;31.00;;;;;15.70;100.00;99779.09;6285626;20;3618085;-60
2023/05/21 00:23:04;;;;;;;;;28.00;26.50;;;;;15.53;100.00;99772.31;6285126;20;3474243;-60
2023/05/21 00:25:33;;;;;;;;;29.33;24.67;;;;;15.55;100.00;99775.75;6312877;20;2846380;-60
2023/05/21 00:28:02;;;;;;;;;32.33;31.67;;;;;15.30;100.00;99781.44;6316512;20;3589919;-60
2023/05/21 00:30:30;;;;;;;;;32.33;30.33;;;;;15.10;100.00;99775.75;6286930;20;3600262;-60
2023/05/21 00:33:01;;;;;;;;;26.33;26.33;;;;;14.66;100.00;99773.81;6287215;20;3598178;-60
2023/05/21 00:35:30;;;;;;;;;30.33;28.00;;;;;15.12;100.00;99767.53;6284401;20;3585672;-60
2023/05/21 00:37:58;;;;;;;;;32.33;30.33;;;;;15.11;100.00;99771.19;6285899;20;3602357;-59
2023/05/21 00:40:27;;;;;;;;;31.33;26.00;;;;;15.04;100.00;99773.53;6283785;20;3594038;-59
2023/05/21 00:42:56;;;;;;;;;34.67;30.67;;;;;15.22;100.00;99771.22;6316967;20;3618088;-61
2023/05/21 00:45:24;;;;;;;;;32.00;30.00;;;;;15.00;100.00;99774.75;6285087;20;3602448;-59
2023/05/21 00:47:53;;;;;;;;;32.33;30.33;;;;;15.03;100.00;99777.19;6284364;20;3599253;-59
2023/05/21 00:50:22;;;;;;;;;37.00;31.00;;;;;15.04;100.00;99786.19;6312980;20;3594169;-60
2023/05/21 00:52:52;;;;;;;;;31.33;28.67;;;;;14.60;100.00;99777.84;6280296;20;3611743;-60
2023/05/21 00:55:20;;;;;;;;;31.67;30.00;;;;;14.54;100.00;99775.63;6318609;20;3583583;-61
2023/05/21 00:57:49;;;;;;;;;29.67;28.67;;;;;14.59;100.00;99767.16;6284325;20;3571163;-60
2023/05/21 01:00:18;;;;;;;;;34.33;31.00;;;;;14.32;100.00;99772.78;6282893;20;3588795;-59
2023/05/21 01:02:47;;;;;;;;;30.00;28.33;;;;;14.61;100.00;99763.38;6280982;20;3598159;-59
2023/05/21 01:05:16;;;;;;;;;36.33;30.33;;;;;14.56;100.00;99775.47;6287779;20;3587752;-60
2023/05/21 01:07:45;;;;;;;;;34.00;31.33;;;;;14.57;100.00;99772.69;6286166;20;3599336;-59
2023/05/21 01:10:14;;;;;;;;;29.67;28.00;;;;;14.45;100.00;99777.13;6282425;20;3598215;-61
2023/05/21 01:12:43;;;;;;;;;32.33;31.00;;;;;14.50;100.00;99777.66;6313457;20;3587065;-59
2023/05/21 01:15:13;;;;;;;;;28.67;28.00;;;;;14.65;100.00;99763.97;6282780;20;2846354;-60
2023/05/21 01:17:44;;;;;;;;;30.67;29.33;;;;;14.32;100.00;99761.97;6311338;20;3581568;-59
2023/05/21 01:20:19;;;;;;;;;30.33;30.00;;;;;14.23;100.00;99764.41;6281135;20;3606751;-60
2023/05/21 01:22:55;;;;;;;;;30.67;27.33;;;;;14.39;100.00;99763.25;6312980;20;3601430;-60
2023/05/21 01:25:24;;;;;;;;;32.67;29.00;;;;;14.28;100.00;99762.22;6284306;20;3606675;-59
2023/05/21 01:27:52;;;;;;;;;31.00;28.33;;;;;14.32;100.00;99761.97;6316120;20;3599254;-60
2023/05/21 01:30:22;;;;;;;;;33.67;29.67;;;;;14.46;100.00;99759.09;6282309;20;3597123;-59
2023/05/21 01:33:34;;;;;;;;;29.67;28.00;;;;;14.42;100.00;99752.19;6280702;20;3596109;-59
2023/05/21 01:36:14;;;;;;;;;31.00;29.00;;;;;14.56;100.00;99749.34;6278108;20;3585716;-60
2023/05/21 01:39:00;;;;;;;;;31.33;27.33;;;;;14.56;100.00;99746.66;6312176;20;3603510;-59
2023/05/21 01:41:33;;;;;;;;;34.00;31.50;;;;;14.25;100.00;99748.94;6284595;20;3475236;-60
2023/05/21 01:44:05;;;;;;;;;34.00;32.00;;;;;14.24;100.00;99752.66;6311632;20;3584248;-61
2023/05/21 01:46:35;;;;;;;;;34.67;31.00;;;;;14.33;100.00;99752.91;6278202;20;2848342;-60
2023/05/21 01:49:07;;;;;;;;;29.33;28.00;;;;;14.30;100.00;99754.00;6309810;20;3579563;-60
2023/05/21 01:51:35;;;;;;;;;26.33;25.33;;;;;14.01;100.00;99750.81;6278498;20;3600304;-60
2023/05/21 01:54:06;;;;;;;;;34.75;31.25;;;;;14.12;100.00;99755.41;6305245;20;3588747;-60
2023/05/21 01:56:35;;;;;;;;;33.33;30.33;;;;;14.30;100.00;99753.13;6279592;20;2851047;-59
2023/05/21 01:59:04;;;;;;;;;31.00;29.67;;;;;14.24;100.00;99746.34;6312870;20;3582594;-59
2023/05/21 02:01:33;;;;;;;;;33.67;30.00;;;;;14.17;100.00;99743.28;6278270;20;3603482;-60
2023/05/21 02:04:01;;;;;;;;;26.00;24.50;;;;;14.14;100.00;99750.72;6281994;20;2834655;-60
2023/05/21 02:06:30;;;;;;;;;29.67;28.33;;;;;14.09;100.00;99753.78;6281232;20;2852574;-60
2023/05/21 02:08:58;;;;;;;;;29.00;29.00;;;;;13.95;100.00;99746.69;6313047;20;3579466;-60
2023/05/21 02:11:27;;;;;;;;;29.33;29.00;;;;;14.00;100.00;99741.81;6283490;20;3596055;-59
2023/05/21 02:13:56;;;;;;;;;31.33;28.67;;;;;14.09;100.00;99744.84;6285984;20;3575396;-60
2023/05/21 02:16:25;;;;;;;;;36.00;30.00;;;;;13.97;100.00;99746.59;6276900;20;3598273;-59
2023/05/21 02:18:56;;;;;;;;;32.33;30.00;;;;;13.72;100.00;99748.44;6308886;20;3589904;-60
2023/05/21 02:21:24;;;;;;;;;37.67;31.67;;;;;13.91;100.00;99738.97;6282287;20;3606554;-59
2023/05/21 02:23:53;;;;;;;;;27.33;27.33;;;;;13.89;100.00;99743.63;6279676;20;2852589;-59
2023/05/21 02:26:22;;;;;;;;;32.67;25.67;;;;;13.80;100.00;99742.47;6310747;20;3610691;-60
2023/05/21 02:28:51;;;;;;;;;29.67;27.67;;;;;13.88;100.00;99748.16;6313558;20;3575712;-59
2023/05/21 02:31:19;;;;;;;;;30.33;29.67;;;;;13.94;100.00;99741.44;6280353;20;3595124;-60
2023/05/21 02:33:48;;;;;;;;;30.00;30.00;;;;;13.90;100.00;99731.84;6282940;20;3577360;-60
2023/05/21 02:36:17;;;;;;;;;32.67;29.33;;;;;13.86;100.00;99741.16;6279552;20;3580488;-59
2023/05/21 02:38:46;;;;;;;;;30.33;28.00;;;;;14.02;100.00;99734.47;6277588;20;3608614;-59
2023/05/21 02:41:15;;;;;;;;;31.33;27.33;;;;;14.30;100.00;99734.22;6316230;20;3596106;-60
2023/05/21 02:43:43;;;;;;;;;26.00;25.33;;;;;14.41;100.00;99727.03;6284471;20;3587759;-60
2023/05/21 02:46:11;;;;;;;;;30.67;28.00;;;;;14.20;100.00;99732.22;6280649;20;3596141;-60
2023/05/21 02:48:40;;;;;;;;;28.00;28.00;;;;;14.57;100.00;99729.44;6280773;20;3604518;-59
2023/05/21 02:51:08;;;;;;;;;29.00;27.00;;;;;14.42;100.00;99731.44;6312655;20;3606558;-60
2023/05/21 02:53:38;;;;;;;;;26.67;25.67;;;;;14.17;100.00;99737.88;6280176;20;3597128;-59
2023/05/21 02:56:06;;;;;;;;;27.67;26.33;;;;;14.40;100.00;99727.13;6281983;20;3596107;-60
2023/05/21 02:58:34;;;;;;;;;26.67;25.67;;;;;14.28;100.00;99734.34;6282980;20;3599296;-59
2023/05/21 03:01:03;;;;;;;;;29.00;23.00;;;;;14.24;100.00;99728.34;6280754;20;2846191;-60
2023/05/21 03:03:31;;;;;;;;;33.33;29.33;;;;;14.15;100.00;99733.56;6284525;20;3598184;-60
2023/05/21 03:05:59;;;;;;;;;29.33;28.33;;;;;14.11;100.00;99737.47;6283780;20;3600292;-58
2023/05/21 03:08:27;;;;;;;;;34.00;29.00;;;;;14.23;100.00;99742.81;6283076;20;3613823;-59
2023/05/21 03:10:56;;;;;;;;;29.67;27.67;;;;;14.31;100.00;99733.25;6283094;20;3597145;-59
2023/05/21 03:13:24;;;;;;;;;34.00;30.33;;;;;14.47;100.00;99733.81;6284820;20;3607590;-59
2023/05/21 03:15:56;;;;;;;;;30.33;30.00;;;;;14.57;100.00;99742.09;6279424;20;3581668;-59
2023/05/21 03:18:24;;;;;;;;;30.00;28.67;;;;;14.60;100.00;99736.44;6280144;20;3583654;-59
2023/05/21 03:20:52;;;;;;;;;29.00;29.00;;;;;14.75;100.00;99737.13;6277907;20;3602700;-59
2023/05/21 03:23:21;;;;;;;;;28.00;28.00;;;;;14.71;100.00;99731.91;6278957;20;3586840;-60
2023/05/21 03:25:50;;;;;;;;;30.00;30.00;;;;;14.82;100.00;99733.78;6314289;20;3601303;-59
2023/05/21 03:28:18;;;;;;;;;27.67;26.00;;;;;14.79;100.00;99738.56;6283403;20;3597137;-59
2023/05/21 03:30:48;;;;;;;;;32.00;29.67;;;;;14.75;100.00;99739.81;6282413;20;3608620;-60
2023/05/21 03:33:17;;;;;;;;;29.00;29.00;;;;;14.73;100.00;99739.06;6278700;20;3591920;-59
2023/05/21 03:35:45;;;;;;;;;26.33;25.67;;;;;14.74;100.00;99738.94;6281634;20;3576428;-59
2023/05/21 03:38:13;;;;;;;;;29.67;25.67;;;;;14.91;100.00;99743.88;6278725;20;3602403;-60
2023/05/21 03:40:42;;;;;;;;;28.33;28.33;;;;;14.74;100.00;99740.78;6278416;20;3576463;-60
2023/05/21 03:43:11;;;;;;;;;26.33;22.33;;;;;14.96;100.00;99746.25;6275014;20;2837851;-59
2023/05/21 03:45:39;;;;;;;;;29.00;27.33;;;;;14.98;100.00;99738.88;6311358;20;3585692;-59
2023/05/21 03:48:11;;;;;;;;;29.00;25.67;;;;;14.97;100.00;99741.69;6276998;20;3589009;-58
2023/05/21 03:50:40;;;;;;;;;27.00;26.67;;;;;14.97;100.00;99741.69;6312640;20;3580599;-59
2023/05/21 03:53:09;;;;;;;;;29.67;28.67;;;;;15.13;100.00;99745.75;6279300;20;3588944;-59
2023/05/21 03:55:38;;;;;;;;;26.67;26.67;;;;;15.07;100.00;99754.34;6278635;20;3596169;-60
2023/05/21 03:58:08;;;;;;;;;31.33;30.00;;;;;15.17;100.00;99764.47;6309507;20;3596185;-60
2023/05/21 04:00:36;;;;;;;;;26.67;26.67;;;;;15.08;100.00;99766.88;6279440;20;3600268;-61
2023/05/21 04:03:05;;;;;;;;;29.67;28.00;;;;;15.05;100.00;99775.25;6282927;20;3601414;-60
2023/05/21 04:05:34;;;;;;;;;31.33;29.33;;;;;15.11;100.00;99777.47;6282987;20;3596189;-59
2023/05/21 04:08:02;;;;;;;;;29.33;27.67;;;;;15.25;100.00;99789.03;6279830;20;3595243;-60
2023/05/21 04:10:31;;;;;;;;;29.33;28.67;;;;;15.35;100.00;99785.47;6277538;20;3619107;-60
2023/05/21 04:13:00;;;;;;;;;32.67;29.67;;;;;15.41;100.00;99780.56;6310992;20;3608586;-59
2023/05/21 04:15:28;;;;;;;;;23.33;21.67;;;;;15.67;100.00;99783.88;6282641;20;3580465;-59
2023/05/21 04:17:57;;;;;;;;;29.33;28.00;;;;;15.85;99.84;99777.00;6275895;20;3596125;-59
2023/05/21 04:20:25;;;;;;;;;26.67;25.00;;;;;15.66;99.80;99776.72;6310548;20;3578449;-60
2023/05/21 04:22:55;;;;;;;;;26.33;25.33;;;;;15.82;99.54;99777.22;6278572;20;3582555;-60
2023/05/21 04:25:24;;;;;;;;;23.33;23.33;;;;;16.01;98.14;99784.72;6309319;20;3580501;-61
2023/05/21 04:27:53;;;;;;;;;24.67;24.67;;;;;16.12;97.37;99779.25;6279533;20;3595054;-60
2023/05/21 04:30:22;;;;;;;;;22.67;21.00;;;;;16.14;97.98;99776.41;6311221;20;3575369;-59
2023/05/21 04:32:51;;;;;;;;;25.67;23.33;;;;;16.44;96.32;99779.25;6279913;20;3576330;-59
2023/05/21 04:35:20;;;;;;;;;14.50;14.50;;;;;16.61;94.78;99774.25;6276595;20;2813856;-60
2023/05/21 04:37:48;;;;;;;;;22.00;21.00;;;;;16.62;93.94;99770.56;6276646;20;2839970;-60
2023/05/21 04:40:23;;;;;;;;;29.00;26.67;;;;;16.96;91.90;99773.13;6281708;20;3596538;-59
2023/05/21 04:42:51;;;;;;;;;23.67;22.67;;;;;17.30;91.52;99766.47;6282596;20;3581518;-61
2023/05/21 04:45:20;;;;;;;;;19.00;19.00;;;;;17.69;88.74;99776.59;6275636;20;3575276;-60
2023/05/21 04:47:49;;;;;;;;;24.00;22.67;;;;;17.70;87.79;99779.19;6275078;20;2846301;-60
2023/05/21 04:50:17;;;;;;;;;23.00;21.00;;;;;18.13;85.32;99788.03;6314220;20;3569056;-60
2023/05/21 04:52:46;;;;;;;;;21.67;20.33;;;;;18.71;82.35;99784.50;6280890;20;3565440;-59
2023/05/21 04:55:14;;;;;;;;;20.50;19.00;;;;;18.99;81.56;99782.78;6282647;20;2830509;-60
2023/05/21 04:57:42;;;;;;;;;23.00;19.50;;;;;22.28;66.00;99791.16;6282391;20;2840923;-59
2023/05/21 05:00:12;;;;;;;;;22.00;19.50;;;;;24.15;58.18;99802.09;6283762;20;2840019;-59
2023/05/21 05:02:40;;;;;;;;;16.33;16.33;;;;;21.45;67.11;99789.06;6286252;20;3562752;-60
2023/05/21 05:05:09;;;;;;;;;20.67;19.67;;;;;19.91;74.93;99785.63;6283699;20;2836854;-59
2023/05/21 05:07:37;;;;;;;;;22.00;20.00;;;;;20.04;75.72;99782.53;6313010;20;2837803;-59
2023/05/21 05:10:06;;;;;;;;;20.00;18.00;;;;;21.86;69.28;99789.28;6287883;20;3569065;-60
2023/05/21 05:12:35;;;;;;;;;20.33;19.33;;;;;22.38;64.87;99794.63;6314670;20;2839852;-61
2023/05/21 05:15:03;;;;;;;;;16.33;16.33;;;;;20.34;73.57;99786.75;6318503;20;3561718;-59
2023/05/21 05:17:33;;;;;;;;;18.00;18.00;;;;;19.92;76.08;99781.88;6279321;20;2836866;-59
2023/05/21 05:20:01;;;;;;;;;22.33;17.00;;;;;19.52;77.28;99782.19;6315087;20;3569113;-59
2023/05/21 05:22:30;;;;;;;;;19.67;18.67;;;;;19.84;78.35;99780.94;6279338;20;2849288;-60
2023/05/21 05:24:58;;;;;;;;;16.67;15.00;;;;;19.98;75.45;99779.56;6301794;20;3548201;-59
2023/05/21 05:27:26;;;;;;;;;18.00;16.67;;;;;19.98;76.29;99776.81;6312138;20;3560782;-60
2023/05/21 05:29:55;;;;;;;;;16.00;16.00;;;;;19.94;75.67;99774.41;6313830;20;3555710;-59
2023/05/21 05:32:23;;;;;;;;;17.67;15.00;;;;;19.94;75.97;99774.41;6285329;20;3545149;-60
2023/05/21 05:34:51;;;;;;;;;19.67;17.00;;;;;19.89;74.20;99775.88;6320184;20;3566982;-60
2023/05/21 05:37:19;;;;;;;;;16.50;16.50;;;;;19.85;75.45;99775.34;6279664;20;2836775;-62
2023/05/21 05:39:47;;;;;;;;;15.50;15.50;;;;;19.89;74.53;99773.16;6282181;20;2822368;-59
2023/05/21 05:42:15;;;;;;;;;15.00;13.50;;;;;19.93;75.01;99775.44;6283849;20;2500292;-58
2023/05/21 05:44:43;;;;;;;;;16.33;15.33;;;;;19.90;73.50;99773.00;6287560;20;3546140;-58
2023/05/21 05:47:11;;;;;;;;;19.00;19.00;;;;;19.81;74.13;99773.06;6315411;20;3574219;-58
2023/05/21 05:49:39;;;;;;;;;19.00;19.00;;;;;19.88;73.76;99769.56;6282711;20;2835725;-59
2023/05/21 05:52:08;;;;;;;;;16.67;15.33;;;;;20.05;72.91;99775.22;6285747;20;3556656;-59
2023/05/21 05:54:35;;;;;;;;;20.00;15.00;;;;;19.86;73.19;99768.88;6315338;20;2492162;-58
2023/05/21 05:57:03;;;;;;;;;17.50;17.50;;;;;19.77;73.56;99763.47;6282542;20;2832575;-59
2023/05/21 05:59:32;;;;;;;;;20.33;18.00;;;;;20.18;73.17;99765.63;6285042;20;3561806;-59
2023/05/21 06:02:00;;;;;;;;;21.00;18.00;;;;;20.46;73.05;99761.97;6283049;20;3563801;-59
2023/05/21 06:04:29;;;;;;;;;17.00;17.00;;;;;20.07;72.47;99756.84;6317116;20;3563817;-59
2023/05/21 06:06:57;;;;;;;;;15.50;14.00;;;;;20.24;72.96;99764.16;6281736;20;2496220;-59
2023/05/21 06:09:25;;;;;;;;;17.00;17.00;;;;;20.25;73.13;99760.44;6283549;20;2839889;-59
2023/05/21 06:11:53;;;;;;;;;17.00;16.00;;;;;20.34;72.84;99766.81;6282769;20;2835734;-59
2023/05/21 06:14:22;;;;;;;;;16.67;15.67;;;;;20.28;72.43;99760.13;6286812;20;3550420;-59
2023/05/21 06:16:50;;;;;;;;;15.67;15.67;;;;;20.63;71.71;99757.59;6310712;20;3549272;-59
2023/05/21 06:19:18;;;;;;;;;19.33;16.00;;;;;20.21;72.22;99744.53;6287717;20;3573195;-59
2023/05/21 06:21:47;;;;;;;;;15.33;12.00;;;;;20.46;71.73;99745.63;6283691;20;2807604;-59
2023/05/21 06:24:14;;;;;;;;;14.00;12.00;;;;;20.76;70.42;99747.97;6312741;20;2487818;-56
2023/05/21 06:26:42;;;;;;;;;17.50;17.50;;;;;21.10;69.97;99739.00;6281680;20;2829549;-58
2023/05/21 06:29:11;;;;;;;;;16.00;16.00;;;;;21.25;69.91;99748.31;6283134;20;2825261;-58
2023/05/21 06:31:42;;;;;;;;;15.00;14.67;;;;;21.08;69.63;99743.75;6286787;20;3539882;-59
2023/05/21 06:34:11;;;;;;;;;13.33;13.33;;;;;21.63;68.96;99745.28;6315506;20;2483583;-59
2023/05/21 06:36:39;;;;;;;;;14.00;13.50;;;;;21.49;69.05;99738.56;6313350;20;2800286;-59
2023/05/21 06:39:08;;;;;;;;;17.00;14.00;;;;;22.29;67.11;99743.63;6285564;20;2823254;-60
2023/05/21 06:41:36;;;;;;;;;13.33;12.00;;;;;22.52;64.44;99744.69;6285583;20;2796220;-60
2023/05/21 06:44:04;;;;;;;;;18.67;18.33;;;;;22.51;65.55;99748.44;6317769;20;3577444;-60
2023/05/21 06:46:33;;;;;;;;;14.67;13.00;;;;;22.77;64.60;99744.66;6284551;20;3520150;-59
2023/05/21 06:49:01;;;;;;;;;19.50;18.00;;;;;22.69;64.02;99745.53;6314596;20;2829541;-59
2023/05/21 06:51:30;;;;;;;;;20.50;18.50;;;;;23.34;61.83;99747.38;6281312;20;2831528;-60
2023/05/21 06:53:58;;;;;;;;;15.00;15.00;;;;;23.51;63.18;99747.31;6283920;20;2809717;-60
2023/05/21 06:56:26;;;;;;;;;10.00;10.00;;;;;23.39;61.25;99744.09;6278895;20;3506590;-60
2023/05/21 06:58:54;;;;;;;;;16.00;16.00;;;;;23.24;62.16;99746.69;6312435;20;3562187;-59
2023/05/21 07:01:23;;;;;;;;;15.00;14.00;;;;;23.62;61.32;99735.97;6282059;20;2810890;-59
2023/05/21 07:03:53;;;;;;;;;11.20;9.20;;;;;23.54;60.49;99735.97;6304511;20;2773179;-61
2023/05/21 07:06:21;;;;;;;;;13.00;12.33;;;;;23.38;61.01;99737.78;6281606;20;2795179;-60
2023/05/21 07:08:49;;;;;;;;;16.67;15.67;;;;;23.60;60.95;99729.81;6316329;20;3551329;-60
2023/05/21 07:11:17;;;;;;;;;15.00;14.67;;;;;23.92;59.17;99738.94;6316939;20;3535713;-60
2023/05/21 07:13:45;;;;;;;;;15.67;14.33;;;;;24.47;59.60;99738.78;6317355;20;3548198;-59
2023/05/21 07:16:15;;;;;;;;;18.00;15.00;;;;;24.73;56.88;99738.41;6311797;20;3555569;-59
2023/05/21 07:18:43;;;;;;;;;15.50;14.50;;;;;24.64;56.21;99734.00;6278346;20;2811856;-60
2023/05/21 07:21:11;;;;;;;;;13.67;12.33;;;;;24.85;55.63;99735.22;6276694;20;3535708;-60
2023/05/21 07:23:39;;;;;;;;;15.00;15.00;;;;;24.91;55.08;99738.09;6280067;20;3531991;-61
2023/05/21 07:26:10;;;;;;;;;15.00;15.00;;;;;24.91;55.60;99737.25;6280442;20;2812881;-60
2023/05/21 07:28:38;;;;;;;;;14.33;13.00;;;;;25.23;54.06;99733.34;6282157;20;3529621;-61
2023/05/21 07:31:07;;;;;;;;;14.33;13.67;;;;;25.44;54.79;99740.00;6279496;20;2491987;-61
2023/05/21 07:33:35;;;;;;;;;14.33;14.33;;;;;25.65;53.89;99740.06;6296937;20;3531520;-60
2023/05/21 07:36:04;;;;;;;;;11.33;11.33;;;;;25.41;53.29;99738.47;6278909;20;3523285;-61
2023/05/21 07:38:32;;;;;;;;;17.67;14.67;;;;;25.39;54.10;99732.31;6279483;20;3539867;-60
2023/05/21 07:41:00;;;;;;;;;15.50;13.50;;;;;25.59;53.34;99733.44;6309353;20;2800428;-60
2023/05/21 07:43:30;;;;;;;;;14.00;14.00;;;;;25.91;51.92;99739.59;6279325;20;2797228;-62
2023/05/21 07:45:58;;;;;;;;;12.67;12.67;;;;;26.33;51.93;99740.72;6276866;20;3517088;-62
2023/05/21 07:48:26;;;;;;;;;13.33;13.33;;;;;25.97;53.34;99736.06;6279625;20;2483670;-62
2023/05/21 07:50:56;;;;;;;;;12.00;12.00;;;;;26.09;51.70;99739.16;6316768;20;3506663;-62
2023/05/21 07:53:25;;;;;;;;;14.00;12.67;;;;;26.22;51.42;99728.28;6311018;20;3535669;-63
2023/05/21 07:55:53;;;;;;;;;13.00;13.00;;;;;26.42;52.56;99739.53;6283993;20;2489934;-61
2023/05/21 07:58:21;;;;;;;;;11.00;10.33;;;;;26.80;50.51;99742.03;6311275;20;3517978;-60
2023/05/21 08:00:49;;;;;;;;;11.00;11.00;;;;;26.48;51.15;99733.22;6275929;20;2802407;-62
2023/05/21 08:03:17;;;;;;;;;13.67;12.67;;;;;26.57;50.92;99735.88;6312896;20;2483657;-62
2023/05/21 08:05:49;;;;;;;;;10.33;10.33;;;;;26.53;51.21;99740.09;6308920;20;3510745;-61
2023/05/21 08:08:19;;;;;;;;;15.00;13.00;;;;;26.67;48.71;99737.28;6310505;20;2483709;-61
2023/05/21 08:10:47;;;;;;;;;12.67;12.67;;;;;26.66;49.60;99729.19;6314172;20;3528422;-61
2023/05/21 08:13:16;;;;;;;;;14.67;12.00;;;;;26.43;49.67;99732.97;6311269;20;3530477;-61
2023/05/21 08:15:44;;;;;;;;;13.33;11.67;;;;;26.44;48.99;99734.69;6311683;20;3510759;-65
2023/05/21 08:18:12;;;;;;;;;13.33;11.67;;;;;26.78;48.18;99741.41;6307588;20;3507555;-65
2023/05/21 08:20:40;;;;;;;;;12.00;12.00;;;;;26.87;48.44;99733.84;6309614;20;2797250;-64
2023/05/21 08:23:08;;;;;;;;;12.67;12.00;;;;;26.77;47.00;99736.91;6276345;20;3515925;-65
2023/05/21 08:25:36;;;;;;;;;9.33;9.33;;;;;26.13;48.94;99732.22;6309321;20;3480533;-64
2023/05/21 08:28:07;;;;;;;;;13.50;13.50;;;;;26.55;48.59;99732.50;6309044;20;2806643;-64
2023/05/21 08:30:36;;;;;;;;;13.33;12.67;;;;;26.50;49.96;99730.28;6285911;20;2483583;-64
2023/05/21 08:33:04;;;;;;;;;12.33;12.33;;;;;26.41;48.88;99728.69;6308091;20;3517054;-64
2023/05/21 08:35:32;;;;;;;;;13.67;12.33;;;;;26.63;48.80;99729.59;6285558;20;2483729;-65
2023/05/21 08:38:00;;;;;;;;;12.00;12.00;;;;;26.74;48.46;99730.97;6318966;20;3520187;-64
2023/05/21 08:40:29;;;;;;;;;14.67;14.00;;;;;26.76;49.40;99728.88;6320332;20;3524355;-64
2023/05/21 08:42:57;;;;;;;;;12.67;12.33;;;;;26.88;47.08;99725.38;6315379;20;3502360;-65
2023/05/21 08:45:26;;;;;;;;;11.00;10.33;;;;;26.72;47.14;99733.91;6281993;20;3508662;-64
2023/05/21 08:47:56;;;;;;;;;14.00;13.67;;;;;26.39;48.96;99728.91;6318203;20;3528551;-64
2023/05/21 08:50:26;;;;;;;;;12.00;12.00;;;;;26.40;49.01;99730.59;6317935;20;3513864;-65
2023/05/21 08:52:56;;;;;;;;;12.00;12.00;;;;;27.23;47.96;99725.44;6315778;20;3495214;-65
2023/05/21 08:55:25;;;;;;;;;12.33;12.33;;;;;27.11;48.27;99733.38;6315716;20;3535770;-65
2023/05/21 08:57:54;;;;;;;;;12.00;12.00;;;;;27.09;48.77;99729.13;6319262;20;3531501;-66
2023/05/21 09:00:23;;;;;;;;;10.33;9.33;;;;;26.49;47.05;99728.59;6320053;20;2778514;-63
2023/05/21 09:02:53;;;;;;;;;6.00;6.00;;;;;26.88;49.17;99722.63;6314303;20;2739860;-64
2023/05/21 09:05:22;;;;;;;;;12.00;10.33;;;;;27.04;47.34;99723.34;6317237;20;3512766;-65
2023/05/21 09:08:05;;;;;;;;;9.33;9.33;;;;;27.22;47.93;99729.25;6312360;20;3482568;-63
2023/05/21 09:10:38;;;;;;;;;14.00;8.33;;;;;27.30;47.41;99722.72;6310854;20;3502496;-64
2023/05/21 09:13:07;;;;;;;;;11.00;10.00;;;;;27.62;46.55;99723.13;6318527;20;2778493;-61
2023/05/21 09:15:36;;;;;;;;;12.33;11.67;;;;;27.66;45.55;99718.91;6312334;20;3513819;-65
2023/05/21 09:18:04;;;;;;;;;5.33;5.33;;;;;27.11;45.26;99722.34;6287922;20;2727534;-64
2023/05/21 09:20:32;;;;;;;;;10.67;7.67;;;;;26.78;46.51;99718.47;6315393;20;2768107;-64
2023/05/21 09:23:11;;;;;;;;;12.67;11.33;;;;;27.07;47.91;99720.22;6316217;20;3510804;-66
2023/05/21 09:25:40;;;;;;;;;13.33;10.00;;;;;27.48;46.47;99727.72;6283797;20;3509675;-65
2023/05/21 09:28:14;;;;;;;;;13.00;11.33;;;;;27.32;45.05;99720.63;6285822;20;3512845;-64
2023/05/21 09:30:48;;;;;;;;;14.00;10.33;;;;;27.45;45.82;99723.44;6311330;20;2484362;-66
2023/05/21 09:33:30;;;;;;;;;11.00;10.00;;;;;26.86;46.05;99719.22;6311285;20;3516156;-64
2023/05/21 09:35:58;;;;;;;;;11.33;11.33;;;;;26.85;47.46;99719.41;6281380;20;3513842;-65
2023/05/21 09:38:26;;;;;;;;;10.00;10.00;;;;;26.93;46.14;99719.25;6279570;20;2774362;-64
2023/05/21 09:40:57;;;;;;;;;13.33;11.33;;;;;27.44;46.26;99715.41;6310684;20;3534756;-65
2023/05/21 09:43:25;;;;;;;;;12.67;12.67;;;;;27.77;47.50;99710.88;6284692;20;3535720;-64
2023/05/21 09:45:55;;;;;;;;;14.00;12.67;;;;;28.14;46.29;99719.75;6283600;20;3527690;-65
2023/05/21 09:48:41;;;;;;;;;12.00;11.00;;;;;28.39;46.55;99710.91;6288809;20;2788934;-65
2023/05/21 09:51:19;;;;;;;;;13.00;12.00;;;;;28.09;44.30;99708.47;6317704;20;2483616;-64
2023/05/21 09:53:59;;;;;;;;;10.33;10.33;;;;;27.33;44.96;99714.03;6317097;20;2483652;-64
2023/05/21 09:56:30;;;;;;;;;11.67;10.33;;;;;27.89;45.29;99713.09;6313704;20;3516005;-66
2023/05/21 09:59:03;;;;;;;;;12.67;12.67;;;;;28.23;46.42;99707.47;6317761;20;3536247;-65
2023/05/21 10:01:36;;;;;;;;;11.33;11.33;;;;;27.86;45.50;99707.97;6313501;20;3517101;-65
2023/05/21 10:04:07;;;;;;;;;11.67;9.67;;;;;27.54;44.04;99702.06;6281460;20;3502436;-68
2023/05/21 10:06:46;;;;;;;;;10.67;10.67;;;;;27.84;44.26;99705.44;6310636;20;3505465;-64
2023/05/21 10:09:18;;;;;;;;;15.33;13.33;;;;;27.35;45.53;99706.41;6280953;20;2483662;-65
2023/05/21 10:11:48;;;;;;;;;13.33;12.00;;;;;27.82;44.93;99702.03;6315493;20;3514830;-64
2023/05/21 10:14:21;;;;;;;;;14.00;12.67;;;;;27.87;46.08;99690.38;6314093;20;3515911;-63
2023/05/21 10:16:53;;;;;;;;;18.00;15.00;;;;;27.65;45.63;99690.47;6313671;20;3546133;-63
2023/05/21 10:19:23;;;;;;;;;13.00;13.00;;;;;27.97;46.29;99694.44;6319845;20;3528395;-63
2023/05/21 10:21:53;;;;;;;;;13.00;12.33;;;;;27.73;45.89;99692.22;6313553;20;2483635;-64
2023/05/21 10:24:22;;;;;;;;;14.67;12.67;;;;;27.86;45.97;99692.28;6313644;20;2483617;-63
2023/05/21 10:26:50;;;;;;;;;15.00;14.00;;;;;27.77;44.26;99694.31;6310379;20;2806552;-64
2023/05/21 10:29:18;;;;;;;;;15.67;15.33;;;;;27.77;45.86;99688.81;6277216;20;2483657;-64
2023/05/21 10:31:48;;;;;;;;;15.33;15.33;;;;;27.91;45.58;99688.88;6315717;20;3554544;-64
2023/05/21 10:34:18;;;;;;;;;14.33;14.33;;;;;27.93;46.72;99684.00;6279142;20;2483598;-65
2023/05/21 10:36:48;;;;;;;;;15.00;13.33;;;;;27.27;46.04;99682.63;6311336;20;2483642;-63
2023/05/21 10:39:21;;;;;;;;;17.00;14.38;;;;;27.20;47.56;99689.13;6339854;20;3546127;-63
2023/05/21 10:42:14;;;;;;;;;14.00;13.67;;;;;27.09;47.02;99693.28;6281631;20;3529634;-64
2023/05/21 10:44:57;;;;;;;;;18.00;15.33;;;;;28.14;45.83;99683.84;6315463;20;3554699;-62
2023/05/21 10:47:40;;;;;;;;;15.00;15.00;;;;;28.41;45.09;99689.41;6278217;20;2487856;-62
2023/05/21 10:50:37;;;;;;;;;13.33;11.00;;;;;28.72;45.93;99674.19;6314319;20;2483662;-62
2023/05/21 10:54:27;;;;;;;;;13.50;13.50;;;;;28.54;44.71;99683.09;6314110;20;2810827;-61
2023/05/21 10:57:47;;;;;;;;;12.00;12.00;;;;;28.44;44.39;99680.78;6276760;20;2483595;-62
2023/05/21 11:00:19;;;;;;;;;14.67;14.00;;;;;28.50;45.57;99676.31;6317807;20;3535899;-64
2023/05/21 11:02:50;;;;;;;;;15.33;14.33;;;;;29.10;43.11;99666.09;6312995;20;3535851;-65
2023/05/21 11:05:41;;;;;;;;;9.33;9.00;;;;;28.35;43.66;99668.19;6281259;20;2745170;-63
2023/05/21 11:08:37;;;;;;;;;13.33;13.00;;;;;28.92;43.23;99666.72;6317298;20;3535719;-63
2023/05/21 11:11:05;;;;;;;;;14.00;12.33;;;;;28.31;46.16;99667.75;6309947;20;3532593;-62
2023/05/21 11:13:47;;;;;;;;;15.00;15.00;;;;;28.69;45.03;99672.69;6307823;20;2817040;-63